Time;durP1;ratioP1;P1;durP2;ratioP2;P2;SDS_P1;SDS_P2;PMS_P1;PMS_P2;Temp;Humidity;BMP_temperature;BMP_pressure;BME280_temperature;BME280_humidity;BME280_pressure;Samples;Min_cycle;Max_cycle;Signal;HPM_P1;HPM_P2
2022/09/10 00:01:18;;;;;;;3.53;1.30;;;16.50;99.90;;;;;;5023399;28;20102;-59
2022/09/10 00:03:44;;;;;;;6.43;1.40;;;16.40;99.90;;;;;;5021301;28;20124;-60
2022/09/10 00:06:10;;;;;;;4.55;1.38;;;16.40;99.90;;;;;;5025647;28;20405;-59
2022/09/10 00:08:38;;;;;;;2.22;0.98;;;16.40;99.90;;;;;;5020152;28;20072;-58
2022/09/10 00:11:06;;;;;;;4.68;1.00;;;16.50;99.90;;;;;;5024043;28;20029;-59
2022/09/10 00:13:33;;;;;;;6.00;1.00;;;16.40;99.90;;;;;;5024014;28;20293;-59
2022/09/10 00:16:02;;;;;;;3.63;1.58;;;16.40;99.90;;;;;;5020797;28;20430;-60
2022/09/10 00:18:28;;;;;;;7.22;1.35;;;16.40;99.90;;;;;;5019487;28;20037;-59
2022/09/10 00:20:55;;;;;;;4.88;1.50;;;16.40;99.90;;;;;;5026010;28;20080;-60
2022/09/10 00:23:24;;;;;;;4.78;1.50;;;16.40;99.90;;;;;;5021817;28;20041;-59
2022/09/10 00:25:55;;;;;;;7.07;1.70;;;16.30;99.90;;;;;;5023151;28;20041;-58
2022/09/10 00:28:22;;;;;;;5.40;1.40;;;16.20;99.90;;;;;;5026789;28;20520;-59
2022/09/10 00:30:50;;;;;;;5.93;2.03;;;16.30;99.90;;;;;;5025416;28;20033;-59
2022/09/10 00:33:17;;;;;;;4.68;1.52;;;16.40;99.90;;;;;;5021490;28;20133;-59
2022/09/10 00:35:44;;;;;;;6.53;1.40;;;16.30;99.90;;;;;;5020523;28;20083;-59
2022/09/10 00:38:11;;;;;;;5.60;1.90;;;16.40;99.90;;;;;;5024160;28;20048;-57
2022/09/10 00:40:38;;;;;;;4.55;1.52;;;16.40;99.90;;;;;;5023489;28;20114;-58
2022/09/10 00:43:19;;;;;;;6.18;1.50;;;16.50;99.90;;;;;;5024619;28;20069;-58
2022/09/10 00:45:51;;;;;;;4.68;1.20;;;16.40;99.90;;;;;;5015591;28;20034;-58
2022/09/10 00:48:21;;;;;;;5.97;1.42;;;16.30;99.90;;;;;;5013715;28;20085;-58
2022/09/10 00:50:50;;;;;;;2.78;1.13;;;16.50;99.90;;;;;;5021875;28;20684;-58
2022/09/10 00:53:20;;;;;;;8.00;1.50;;;16.50;99.90;;;;;;5020231;28;20041;-58
2022/09/10 00:55:49;;;;;;;5.05;1.70;;;16.40;99.90;;;;;;5004829;28;20041;-58
2022/09/10 00:58:18;;;;;;;4.63;1.35;;;16.40;99.90;;;;;;5022577;28;20522;-59
2022/09/10 01:00:44;;;;;;;5.13;1.60;;;16.40;99.90;;;;;;5023845;28;20140;-58
2022/09/10 01:03:12;;;;;;;6.90;1.58;;;16.40;99.90;;;;;;5020781;28;20034;-60
2022/09/10 01:05:41;;;;;;;4.60;1.48;;;16.30;99.90;;;;;;5022709;28;20037;-58
2022/09/10 01:08:12;;;;;;;4.90;1.45;;;16.10;99.90;;;;;;5014700;28;20123;-58
2022/09/10 01:11:02;;;;;;;7.95;1.70;;;16.10;99.90;;;;;;5020767;28;20091;-60
2022/09/10 01:13:34;;;;;;;3.85;1.13;;;16.10;99.90;;;;;;5025929;28;20037;-60
2022/09/10 01:16:13;;;;;;;5.97;1.42;;;16.10;99.90;;;;;;5027387;28;20045;-58
2022/09/10 01:18:54;;;;;;;4.53;1.40;;;16.10;99.90;;;;;;5020078;28;20036;-58
2022/09/10 01:21:25;;;;;;;3.40;1.48;;;16.10;99.90;;;;;;5025111;28;20045;-60
2022/09/10 01:24:23;;;;;;;4.10;1.30;;;16.00;99.90;;;;;;5024390;28;20124;-58
2022/09/10 01:27:22;;;;;;;3.92;1.40;;;16.00;99.90;;;;;;5002932;28;20915;-58
2022/09/10 01:30:03;;;;;;;5.78;1.48;;;15.80;99.90;;;;;;5025449;28;20033;-59
2022/09/10 01:32:49;;;;;;;4.75;1.50;;;15.80;99.90;;;;;;5016038;28;20156;-58
2022/09/10 01:35:18;;;;;;;4.82;1.55;;;15.90;99.90;;;;;;5019877;28;20520;-60
2022/09/10 01:37:48;;;;;;;5.13;1.70;;;16.00;99.90;;;;;;5029057;28;20060;-59
2022/09/10 01:40:16;;;;;;;7.07;1.98;;;16.30;99.90;;;;;;5019824;28;20030;-60
2022/09/10 01:42:42;;;;;;;5.18;1.85;;;16.40;99.90;;;;;;5010765;28;20140;-59
2022/09/10 01:45:12;;;;;;;9.48;1.90;;;16.10;99.90;;;;;;5018653;28;20030;-59
2022/09/10 01:48:09;;;;;;;6.43;1.80;;;16.10;99.90;;;;;;5026354;28;20385;-59
2022/09/10 01:51:07;;;;;;;8.63;2.70;;;16.10;99.90;;;;;;5026022;28;20634;-59
2022/09/10 01:53:39;;;;;;;8.88;2.05;;;16.10;99.90;;;;;;5023122;28;20122;-58
2022/09/10 01:56:16;;;;;;;7.95;1.90;;;16.30;99.90;;;;;;5022576;28;20049;-59
2022/09/10 01:58:43;;;;;;;6.65;2.33;;;16.20;99.90;;;;;;5025545;28;20041;-58
2022/09/10 02:01:35;;;;;;;4.53;1.90;;;16.20;99.90;;;;;;5013034;28;20447;-58
2022/09/10 02:04:05;;;;;;;7.30;2.20;;;16.30;99.90;;;;;;5028738;28;20038;-58
2022/09/10 02:06:35;;;;;;;7.88;2.38;;;16.40;99.90;;;;;;5025024;28;20053;-58
2022/09/10 02:09:02;;;;;;;6.45;2.38;;;16.40;99.90;;;;;;5023223;28;20029;-57
2022/09/10 02:11:28;;;;;;;9.68;2.53;;;16.50;99.90;;;;;;5021737;28;20103;-59
2022/09/10 02:13:54;;;;;;;7.35;2.63;;;16.50;99.90;;;;;;5021175;28;20034;-58
2022/09/10 02:16:29;;;;;;;9.32;2.65;;;16.50;99.90;;;;;;5023427;28;20037;-58
2022/09/10 02:18:57;;;;;;;4.55;2.35;;;16.60;99.90;;;;;;5022920;28;20029;-58
2022/09/10 02:21:23;;;;;;;6.40;2.80;;;16.60;99.90;;;;;;5024492;28;20049;-58
2022/09/10 02:23:56;;;;;;;8.35;2.63;;;16.70;99.90;;;;;;5022499;28;20040;-59
2022/09/10 02:26:24;;;;;;;7.15;2.58;;;16.70;99.90;;;;;;5022830;28;20579;-58
2022/09/10 02:28:51;;;;;;;9.80;2.70;;;16.50;99.90;;;;;;5028811;28;20480;-58
2022/09/10 02:31:17;;;;;;;6.90;2.55;;;16.60;99.90;;;;;;5024463;28;20049;-58
2022/09/10 02:33:43;;;;;;;8.25;2.90;;;16.50;99.90;;;;;;5021250;28;20037;-57
2022/09/10 02:36:08;;;;;;;7.35;3.00;;;16.60;99.90;;;;;;5024172;28;20440;-59
2022/09/10 02:38:34;;;;;;;6.40;2.90;;;16.70;99.90;;;;;;5025859;28;20483;-58
2022/09/10 02:41:00;;;;;;;8.23;3.38;;;16.60;99.90;;;;;;5025380;28;20071;-59
2022/09/10 02:43:26;;;;;;;8.43;3.80;;;16.60;99.90;;;;;;5022159;28;20033;-59
2022/09/10 02:45:56;;;;;;;7.00;3.42;;;16.50;99.90;;;;;;5023337;28;20037;-58
2022/09/10 02:48:24;;;;;;;7.93;3.70;;;16.60;99.90;;;;;;5021696;28;20049;-58
2022/09/10 02:50:51;;;;;;;7.53;3.70;;;16.50;99.90;;;;;;5028841;28;20123;-58
2022/09/10 02:53:16;;;;;;;7.75;3.75;;;16.60;99.90;;;;;;5002490;28;20080;-58
2022/09/10 02:55:46;;;;;;;7.15;3.25;;;16.60;99.90;;;;;;5023844;28;20484;-59
2022/09/10 02:58:14;;;;;;;9.60;3.85;;;16.70;99.90;;;;;;5022932;28;20044;-59
2022/09/10 03:00:40;;;;;;;9.48;3.90;;;16.80;99.90;;;;;;5027746;28;20037;-57
2022/09/10 03:03:06;;;;;;;8.32;3.95;;;16.70;99.90;;;;;;5024162;28;20033;-58
2022/09/10 03:05:32;;;;;;;9.38;4.00;;;16.60;99.90;;;;;;5023508;28;20044;-58
2022/09/10 03:07:59;;;;;;;7.60;3.35;;;16.60;99.90;;;;;;5023117;28;20493;-58
2022/09/10 03:10:25;;;;;;;7.32;3.45;;;16.60;99.90;;;;;;5021095;28;20135;-58
2022/09/10 03:12:50;;;;;;;8.32;3.85;;;16.50;99.90;;;;;;5027059;28;20599;-58
2022/09/10 03:15:19;;;;;;;9.75;3.88;;;16.50;99.90;;;;;;5021662;28;20072;-58
2022/09/10 03:17:45;;;;;;;9.32;3.75;;;16.50;99.90;;;;;;5023083;28;20045;-59
2022/09/10 03:20:11;;;;;;;6.53;3.60;;;16.40;99.90;;;;;;5026699;28;20378;-59
2022/09/10 03:22:37;;;;;;;7.38;3.65;;;16.30;99.90;;;;;;5021180;28;20119;-58
2022/09/10 03:25:03;;;;;;;10.07;3.90;;;16.40;99.90;;;;;;5024192;28;20079;-58
2022/09/10 03:27:29;;;;;;;9.27;3.70;;;16.40;99.90;;;;;;5019549;28;20049;-58
2022/09/10 03:29:54;;;;;;;12.30;4.07;;;16.40;99.90;;;;;;5024152;28;20413;-58
2022/09/10 03:32:20;;;;;;;10.90;4.28;;;16.40;99.90;;;;;;5019797;28;20455;-58
2022/09/10 03:34:47;;;;;;;8.63;4.00;;;16.50;99.90;;;;;;5028095;28;20827;-59
2022/09/10 03:37:14;;;;;;;10.68;4.03;;;16.40;99.90;;;;;;5009978;28;20040;-59
2022/09/10 03:39:39;;;;;;;10.40;4.20;;;16.40;99.90;;;;;;5019157;28;20037;-59
2022/09/10 03:42:06;;;;;;;10.07;4.13;;;16.50;99.90;;;;;;5022313;28;20091;-59
2022/09/10 03:44:32;;;;;;;11.45;4.35;;;16.30;99.90;;;;;;5024330;28;20140;-59
2022/09/10 03:46:59;;;;;;;14.32;4.53;;;16.20;99.90;;;;;;5017558;28;20573;-58
2022/09/10 03:49:25;;;;;;;10.57;4.18;;;16.20;99.90;;;;;;5027377;28;20091;-57
2022/09/10 03:51:51;;;;;;;6.82;4.03;;;16.30;99.90;;;;;;5021800;28;20029;-58
2022/09/10 03:54:16;;;;;;;12.27;4.35;;;16.50;99.90;;;;;;5022006;28;20057;-57
2022/09/10 03:56:43;;;;;;;8.20;3.70;;;16.40;99.90;;;;;;5000751;28;20124;-59
2022/09/10 03:59:08;;;;;;;10.90;4.63;;;16.30;99.90;;;;;;5010265;28;20504;-59
2022/09/10 04:01:35;;;;;;;11.23;4.25;;;16.40;99.90;;;;;;5025200;28;20060;-59
2022/09/10 04:04:01;;;;;;;10.02;4.18;;;16.60;99.90;;;;;;5017618;28;20112;-58
2022/09/10 04:06:27;;;;;;;10.10;4.70;;;16.50;99.90;;;;;;5025811;28;20091;-58
2022/09/10 04:08:53;;;;;;;11.40;4.70;;;16.70;99.90;;;;;;5022581;28;20041;-59
2022/09/10 04:11:19;;;;;;;13.23;5.00;;;16.80;99.90;;;;;;5024299;28;20033;-59
2022/09/10 04:13:47;;;;;;;14.43;5.15;;;16.70;99.90;;;;;;5022573;28;20029;-58
2022/09/10 04:16:15;;;;;;;12.10;5.00;;;16.80;99.90;;;;;;5023334;28;20037;-59
2022/09/10 04:18:40;;;;;;;13.10;5.70;;;16.80;99.90;;;;;;5028562;28;20986;-60
2022/09/10 04:21:06;;;;;;;14.52;5.13;;;16.70;99.90;;;;;;5006669;28;20500;-58
2022/09/10 04:23:32;;;;;;;9.40;5.13;;;16.70;99.90;;;;;;5026136;28;20034;-59
2022/09/10 04:25:57;;;;;;;10.73;5.15;;;16.60;99.90;;;;;;5016788;28;20037;-59
2022/09/10 04:28:23;;;;;;;8.90;4.78;;;16.60;99.90;;;;;;5024155;28;20037;-59
2022/09/10 04:30:50;;;;;;;12.00;4.75;;;16.50;99.90;;;;;;5026123;28;20041;-59
2022/09/10 04:33:15;;;;;;;11.77;5.50;;;16.50;99.90;;;;;;5024475;28;20781;-60
2022/09/10 04:35:42;;;;;;;13.38;6.15;;;16.70;99.90;;;;;;5025917;28;20033;-59
2022/09/10 04:38:08;;;;;;;12.80;5.75;;;16.70;99.90;;;;;;5024660;28;20037;-60
2022/09/10 04:40:34;;;;;;;11.82;4.90;;;16.40;99.90;;;;;;5018058;28;20051;-60
2022/09/10 04:43:00;;;;;;;9.85;5.38;;;16.20;99.90;;;;;;5026549;28;20058;-59
2022/09/10 04:45:25;;;;;;;12.70;6.18;;;16.40;99.90;;;;;;5015565;28;20044;-60
2022/09/10 04:47:53;;;;;;;10.48;5.43;;;16.40;99.90;;;;;;5021844;28;20559;-59
2022/09/10 04:50:19;;;;;;;13.23;5.55;;;16.20;99.90;;;;;;5019236;28;20049;-60
2022/09/10 04:52:44;;;;;;;8.60;4.80;;;16.00;99.90;;;;;;5026828;28;20569;-60
2022/09/10 04:55:10;;;;;;;10.80;5.60;;;16.10;99.90;;;;;;5028451;28;20034;-59
2022/09/10 04:57:37;;;;;;;15.25;5.65;;;16.00;99.90;;;;;;5025031;28;20384;-59
2022/09/10 05:00:07;;;;;;;11.93;5.78;;;16.00;99.90;;;;;;5026420;28;20520;-59
2022/09/10 05:02:33;;;;;;;11.38;5.97;;;16.10;99.90;;;;;;5022252;28;20426;-60
2022/09/10 05:04:59;;;;;;;16.83;6.18;;;16.20;99.90;;;;;;5010152;28;20091;-59
2022/09/10 05:07:24;;;;;;;12.07;6.80;;;16.00;99.90;;;;;;5025352;28;20515;-59
2022/09/10 05:09:50;;;;;;;13.68;6.72;;;16.30;99.90;;;;;;5029826;28;20053;-60
2022/09/10 05:12:18;;;;;;;12.70;6.30;;;16.30;99.90;;;;;;5024279;28;20041;-60
2022/09/10 05:14:43;;;;;;;14.43;6.90;;;16.40;99.90;;;;;;5030716;28;20033;-61
2022/09/10 05:17:09;;;;;;;13.90;6.90;;;16.40;99.90;;;;;;5024686;28;20099;-61
2022/09/10 05:19:34;;;;;;;14.15;6.90;;;16.60;99.90;;;;;;5024135;28;20116;-60
2022/09/10 05:22:00;;;;;;;12.90;6.68;;;16.40;99.90;;;;;;4993300;28;1048625;-60
2022/09/10 05:24:26;;;;;;;12.95;6.80;;;16.30;99.90;;;;;;5025046;28;20041;-59
2022/09/10 05:26:51;;;;;;;15.57;7.15;;;16.20;99.90;;;;;;5026301;28;20025;-59
2022/09/10 05:29:17;;;;;;;10.70;6.28;;;16.30;99.90;;;;;;5027440;28;20068;-60
2022/09/10 05:31:43;;;;;;;11.52;6.28;;;16.30;99.90;;;;;;5028625;28;20060;-59
2022/09/10 05:34:09;;;;;;;12.40;6.55;;;16.30;99.90;;;;;;5028427;28;20484;-60
2022/09/10 05:36:34;;;;;;;13.35;6.30;;;16.30;99.90;;;;;;5028021;28;20045;-60
2022/09/10 05:39:02;;;;;;;14.98;6.60;;;16.50;99.90;;;;;;5022381;28;20025;-60
2022/09/10 05:41:29;;;;;;;11.95;6.35;;;16.30;99.90;;;;;;5026175;28;20573;-60
2022/09/10 05:43:55;;;;;;;15.65;6.70;;;16.00;99.90;;;;;;5022879;28;20440;-61
2022/09/10 05:46:23;;;;;;;13.13;5.90;;;15.90;99.90;;;;;;5021855;28;20038;-61
2022/09/10 05:48:49;;;;;;;12.68;6.28;;;15.80;99.90;;;;;;5026137;28;20041;-60
2022/09/10 05:51:15;;;;;;;11.85;6.13;;;16.00;99.90;;;;;;5028004;28;20030;-60
2022/09/10 05:53:40;;;;;;;13.15;6.60;;;16.00;99.90;;;;;;5023584;28;20037;-59
2022/09/10 05:56:06;;;;;;;11.35;5.95;;;15.90;99.90;;;;;;5026795;28;20029;-59
2022/09/10 05:58:33;;;;;;;12.10;6.80;;;16.00;99.90;;;;;;5023808;28;20481;-59
2022/09/10 06:00:59;;;;;;;10.50;6.40;;;15.90;99.90;;;;;;5036825;28;20499;-59
2022/09/10 06:03:25;;;;;;;13.85;6.53;;;15.90;99.90;;;;;;5026470;28;20120;-59
2022/09/10 06:05:51;;;;;;;11.35;6.15;;;16.00;99.90;;;;;;5013521;28;20535;-59
2022/09/10 06:08:19;;;;;;;10.48;6.20;;;16.10;99.90;;;;;;5021763;28;20041;-59
2022/09/10 06:11:01;;;;;;;13.82;6.80;;;16.10;99.90;;;;;;5029893;28;20022;-60
2022/09/10 06:13:27;;;;;;;10.85;5.95;;;16.10;99.90;;;;;;5027861;28;20036;-61
2022/09/10 06:15:53;;;;;;;12.68;7.10;;;16.10;99.90;;;;;;5025078;28;20037;-57
2022/09/10 06:18:19;;;;;;;12.70;6.85;;;16.10;99.90;;;;;;5026499;28;20048;-59
2022/09/10 06:20:46;;;;;;;11.77;6.43;;;16.00;99.90;;;;;;5027146;28;20041;-59
2022/09/10 06:23:14;;;;;;;11.93;6.53;;;16.10;99.90;;;;;;5026763;28;20041;-59
2022/09/10 06:25:40;;;;;;;12.50;6.00;;;16.30;99.90;;;;;;5025873;28;20061;-58
2022/09/10 06:28:05;;;;;;;16.13;6.80;;;16.30;99.90;;;;;;5025562;28;20072;-59
2022/09/10 06:30:31;;;;;;;12.35;6.07;;;16.20;99.90;;;;;;5025206;28;20048;-58
2022/09/10 06:32:56;;;;;;;10.73;6.00;;;16.10;99.90;;;;;;5026227;28;20510;-59
2022/09/10 06:35:24;;;;;;;13.30;6.18;;;16.20;99.90;;;;;;5029984;28;20048;-59
2022/09/10 06:37:49;;;;;;;13.30;6.22;;;16.10;99.90;;;;;;5026889;28;20128;-59
2022/09/10 06:40:15;;;;;;;13.15;6.05;;;16.00;99.90;;;;;;5023617;28;20933;-59
2022/09/10 06:42:41;;;;;;;12.10;6.43;;;16.20;99.90;;;;;;5026885;28;20068;-59
2022/09/10 06:45:07;;;;;;;9.30;5.78;;;16.20;99.90;;;;;;5022336;28;20373;-59
2022/09/10 06:47:32;;;;;;;12.27;6.53;;;16.20;99.90;;;;;;5019152;28;20351;-59
2022/09/10 06:49:58;;;;;;;12.85;6.18;;;16.30;99.90;;;;;;5023998;28;20032;-58
2022/09/10 06:52:24;;;;;;;13.25;7.05;;;16.40;99.90;;;;;;5026028;28;20065;-58
2022/09/10 06:54:50;;;;;;;10.65;6.60;;;16.50;99.90;;;;;;5028106;28;20029;-59
2022/09/10 06:57:16;;;;;;;12.85;6.15;;;16.40;99.90;;;;;;5024223;28;20400;-58
2022/09/10 06:59:42;;;;;;;12.20;5.70;;;16.40;99.90;;;;;;5028145;28;20041;-58
2022/09/10 07:02:08;;;;;;;11.48;5.93;;;16.50;99.90;;;;;;5024185;28;20026;-57
2022/09/10 07:04:34;;;;;;;9.32;5.97;;;16.40;99.90;;;;;;5009020;28;20355;-58
2022/09/10 07:06:59;;;;;;;11.57;5.85;;;16.30;99.90;;;;;;5024330;28;20037;-58
2022/09/10 07:09:25;;;;;;;10.43;6.03;;;16.30;99.90;;;;;;5007789;28;20036;-58
2022/09/10 07:11:51;;;;;;;13.27;6.22;;;16.30;99.90;;;;;;5019719;28;20033;-58
2022/09/10 07:14:16;;;;;;;12.15;5.90;;;16.20;99.90;;;;;;5024001;28;20393;-58
2022/09/10 07:16:43;;;;;;;13.90;5.97;;;16.30;99.90;;;;;;5024163;28;20025;-58
2022/09/10 07:19:09;;;;;;;10.25;5.97;;;16.40;99.90;;;;;;5030439;28;20091;-58
2022/09/10 07:21:36;;;;;;;14.60;6.28;;;16.40;99.90;;;;;;5019220;28;20033;-58
2022/09/10 07:24:04;;;;;;;12.38;6.70;;;16.40;99.90;;;;;;5026379;28;20048;-59
2022/09/10 07:26:30;;;;;;;8.50;6.13;;;16.60;99.90;;;;;;5021720;28;20029;-59
2022/09/10 07:28:57;;;;;;;13.10;6.15;;;16.60;99.90;;;;;;5005003;28;20413;-59
2022/09/10 07:31:28;;;;;;;13.95;6.57;;;16.40;99.90;;;;;;5022516;28;20037;-58
2022/09/10 07:33:56;;;;;;;16.38;6.72;;;16.50;99.90;;;;;;5016804;28;20460;-59
2022/09/10 07:36:23;;;;;;;15.77;6.50;;;16.60;99.90;;;;;;5021458;28;20423;-59
2022/09/10 07:38:53;;;;;;;15.75;6.88;;;16.50;99.90;;;;;;5026214;28;20174;-57
2022/09/10 07:41:19;;;;;;;11.98;6.00;;;16.40;99.90;;;;;;5010546;28;20050;-58
2022/09/10 07:43:44;;;;;;;13.88;6.50;;;16.30;99.90;;;;;;5017131;28;20680;-58
2022/09/10 07:46:12;;;;;;;12.95;6.82;;;16.40;99.90;;;;;;5020164;28;20041;-59
2022/09/10 07:48:40;;;;;;;13.25;6.63;;;16.50;99.90;;;;;;5022569;28;20049;-57
2022/09/10 07:51:07;;;;;;;14.90;7.15;;;16.40;99.90;;;;;;5024310;28;20029;-58
2022/09/10 07:53:33;;;;;;;13.90;7.15;;;16.60;99.90;;;;;;5020703;28;20042;-58
2022/09/10 07:56:01;;;;;;;14.38;7.57;;;16.70;99.90;;;;;;5003226;28;20037;-59
2022/09/10 07:58:28;;;;;;;10.80;7.13;;;16.60;99.90;;;;;;5021806;28;20060;-58
2022/09/10 08:00:54;;;;;;;20.98;8.35;;;16.70;99.90;;;;;;5023155;28;20603;-58
2022/09/10 08:03:20;;;;;;;17.52;8.30;;;16.90;99.90;;;;;;5026838;28;20032;-59
2022/09/10 08:05:47;;;;;;;14.98;7.47;;;17.00;99.90;;;;;;5025335;28;20041;-58
2022/09/10 08:08:12;;;;;;;12.55;7.40;;;16.90;99.90;;;;;;5023649;28;20090;-58
2022/09/10 08:10:39;;;;;;;14.43;8.13;;;16.80;99.90;;;;;;5026368;28;20042;-58
2022/09/10 08:13:05;;;;;;;16.23;8.48;;;16.80;99.90;;;;;;5019131;28;20081;-59
2022/09/10 08:15:30;;;;;;;13.23;8.15;;;16.80;99.90;;;;;;5025545;28;20541;-58
2022/09/10 08:17:58;;;;;;;15.02;9.02;;;16.70;99.90;;;;;;5026593;28;20025;-59
2022/09/10 08:20:25;;;;;;;11.20;8.40;;;16.60;99.90;;;;;;5024823;28;20029;-59
2022/09/10 08:22:51;;;;;;;14.88;8.88;;;16.60;99.90;;;;;;5030833;28;20049;-58
2022/09/10 08:25:19;;;;;;;13.35;8.98;;;16.80;99.90;;;;;;5023373;28;20124;-59
2022/09/10 08:27:44;;;;;;;14.55;9.55;;;16.80;99.90;;;;;;5023532;28;20045;-59
2022/09/10 08:30:11;;;;;;;16.55;9.95;;;16.90;99.90;;;;;;5022381;28;20477;-59
2022/09/10 08:32:36;;;;;;;14.38;9.43;;;17.00;99.90;;;;;;5022160;28;20033;-59
2022/09/10 08:35:03;;;;;;;15.07;9.18;;;16.80;99.90;;;;;;5028333;28;20040;-59
2022/09/10 08:37:31;;;;;;;15.95;10.20;;;16.80;99.90;;;;;;5025000;28;20420;-59
2022/09/10 08:39:57;;;;;;;15.13;9.82;;;16.90;99.90;;;;;;5021784;28;20510;-59
2022/09/10 08:42:41;;;;;;;16.70;10.30;;;16.80;99.90;;;;;;5023220;28;20040;-59
2022/09/10 08:45:22;;;;;;;17.60;9.82;;;16.90;99.90;;;;;;5021903;28;20227;-60
2022/09/10 08:48:12;;;;;;;15.93;9.70;;;16.70;99.90;;;;;;5022777;28;20092;-60
2022/09/10 08:50:48;;;;;;;17.02;10.27;;;16.80;99.90;;;;;;5026525;28;20380;-60
2022/09/10 08:53:13;;;;;;;15.57;10.82;;;16.80;99.90;;;;;;5022302;28;20516;-60
2022/09/10 08:55:40;;;;;;;16.63;10.18;;;16.90;99.90;;;;;;5026034;28;20033;-59
2022/09/10 08:58:36;;;;;;;13.90;10.13;;;16.90;99.90;;;;;;5022574;28;20036;-59
2022/09/10 09:01:03;;;;;;;15.50;10.63;;;16.80;99.90;;;;;;5018396;28;20049;-59
2022/09/10 09:04:01;;;;;;;11.80;9.77;;;16.70;99.90;;;;;;5024365;28;20037;-57
2022/09/10 09:06:28;;;;;;;11.98;9.90;;;16.70;99.90;;;;;;5016931;28;20117;-59
2022/09/10 09:08:54;;;;;;;16.40;9.60;;;16.70;99.90;;;;;;5017433;28;20045;-58
2022/09/10 09:11:38;;;;;;;15.50;10.55;;;16.70;99.90;;;;;;5021961;28;20050;-59
2022/09/10 09:14:32;;;;;;;14.80;10.50;;;16.60;99.90;;;;;;5025757;28;20037;-59
2022/09/10 09:17:04;;;;;;;;;;;17.80;99.90;;;;;;5020162;28;20489;-59
2022/09/10 09:19:43;;;;;;;19.52;12.27;;;16.80;99.90;;;;;;5021959;28;20308;-58
2022/09/10 09:22:19;;;;;;;16.52;11.95;;;16.80;99.90;;;;;;5019445;28;20033;-58
2022/09/10 09:25:04;;;;;;;16.75;13.02;;;16.90;99.90;;;;;;5027002;28;20504;-57
2022/09/10 09:27:35;;;;;;;21.77;12.88;;;17.00;99.90;;;;;;5002752;28;20045;-58
2022/09/10 09:30:03;;;;;;;22.00;14.55;;;17.10;99.90;;;;;;5024497;28;20079;-59
2022/09/10 09:32:33;;;;;;;17.50;15.20;;;17.10;99.90;;;;;;5029373;28;20037;-59
2022/09/10 09:35:36;;;;;;;19.52;12.98;;;17.10;99.90;;;;;;5028646;28;20050;-59
2022/09/10 09:38:36;;;;;;;21.90;14.32;;;17.00;99.90;;;;;;5022706;28;20032;-59
2022/09/10 09:41:07;;;;;;;25.25;14.85;;;17.20;99.90;;;;;;5003868;28;20083;-58
2022/09/10 09:43:39;;;;;;;20.58;14.88;;;17.00;99.90;;;;;;5026741;28;20735;-58
2022/09/10 09:46:13;;;;;;;20.23;14.73;;;17.00;99.90;;;;;;5024527;28;20053;-59
2022/09/10 09:48:41;;;;;;;22.95;15.32;;;17.00;99.90;;;;;;5019713;28;20043;-59
2022/09/10 09:51:11;;;;;;;20.33;15.55;;;17.10;99.90;;;;;;5026321;28;20056;-59
2022/09/10 09:53:40;;;;;;;23.58;15.63;;;17.10;99.90;;;;;;5022842;28;20543;-59
2022/09/10 09:56:15;;;;;;;22.20;15.93;;;17.10;99.90;;;;;;5025874;28;20711;-58
2022/09/10 09:58:48;;;;;;;20.30;15.88;;;17.10;99.90;;;;;;5024853;28;20719;-59
2022/09/10 10:01:17;;;;;;;20.55;16.52;;;17.30;99.90;;;;;;5024512;28;20443;-59
2022/09/10 10:03:57;;;;;;;21.50;15.88;;;17.20;99.90;;;;;;5024345;28;20037;-59
2022/09/10 10:06:44;;;;;;;19.58;16.42;;;17.30;99.90;;;;;;5023819;28;20425;-58
2022/09/10 10:09:22;;;;;;;22.80;16.63;;;17.30;99.90;;;;;;5021063;28;20045;-58
2022/09/10 10:11:56;;;;;;;22.08;16.50;;;17.20;99.90;;;;;;5022139;28;20052;-59
2022/09/10 10:14:30;;;;;;;21.45;16.50;;;17.30;99.90;;;;;;5024678;28;20068;-59
2022/09/10 10:16:59;;;;;;;18.90;16.65;;;17.30;99.90;;;;;;5029325;28;20091;-59
2022/09/10 10:19:35;;;;;;;23.17;17.17;;;17.30;99.90;;;;;;5014372;28;20034;-58
2022/09/10 10:22:13;;;;;;;26.08;18.05;;;17.40;99.90;;;;;;5024922;28;20037;-58
2022/09/10 10:24:41;;;;;;;24.50;19.58;;;17.50;99.90;;;;;;5026372;28;20619;-59
2022/09/10 10:27:28;;;;;;;27.05;19.92;;;17.60;99.90;;;;;;5011389;28;20033;-58
2022/09/10 10:30:00;;;;;;;28.33;21.38;;;17.80;99.90;;;;;;5019252;28;20038;-58
2022/09/10 10:32:47;;;;;;;27.15;21.10;;;17.80;99.90;;;;;;5022478;28;20056;-58
2022/09/10 10:35:47;;;;;;;27.60;21.40;;;17.90;99.90;;;;;;5019555;28;20117;-59
2022/09/10 10:38:22;;;;;;;26.83;20.63;;;18.00;99.90;;;;;;5020423;28;20030;-58
2022/09/10 10:41:25;;;;;;;25.13;21.85;;;18.00;99.90;;;;;;5021356;28;20073;-59
2022/09/10 10:44:34;;;;;;;26.98;21.27;;;18.10;99.90;;;;;;5015082;28;20120;-59
2022/09/10 10:47:23;;;;;;;24.30;19.48;;;18.20;99.90;;;;;;5020837;28;20369;-59
2022/09/10 10:50:14;;;;;;;25.15;20.33;;;18.20;99.90;;;;;;5017409;28;20636;-59
2022/09/10 10:53:07;;;;;;;26.73;19.95;;;18.20;99.90;;;;;;5013033;28;20060;-59
2022/09/10 10:56:01;;;;;;;25.23;21.13;;;18.30;99.90;;;;;;5018301;28;20045;-58
2022/09/10 10:59:05;;;;;;;29.15;21.90;;;18.50;99.90;;;;;;5015995;28;20038;-59
2022/09/10 11:01:38;;;;;;;26.35;21.13;;;18.40;99.90;;;;;;5014108;28;20157;-59
2022/09/10 11:04:27;;;;;;;27.13;20.33;;;18.50;99.90;;;;;;5018993;28;20037;-58
2022/09/10 11:07:04;;;;;;;24.23;21.33;;;18.40;99.90;;;;;;5020242;28;20038;-58
2022/09/10 11:10:04;;;;;;;24.25;19.98;;;18.50;99.90;;;;;;5021016;28;20139;-59
2022/09/10 11:12:38;;;;;;;22.85;18.15;;;18.50;99.90;;;;;;5021775;28;20041;-58
2022/09/10 11:15:32;;;;;;;21.20;18.20;;;18.40;99.90;;;;;;5024847;28;20026;-58
2022/09/10 11:18:26;;;;;;;23.65;18.95;;;18.50;99.90;;;;;;5023120;28;20369;-58
2022/09/10 11:21:20;;;;;;;24.08;18.10;;;18.50;99.90;;;;;;5023577;28;20095;-59
2022/09/10 11:24:02;;;;;;;23.70;19.30;;;18.30;99.90;;;;;;5020630;28;20033;-58
2022/09/10 11:26:40;;;;;;;21.13;18.65;;;18.40;99.90;;;;;;5022501;28;20841;-59
2022/09/10 11:29:27;;;;;;;24.85;20.17;;;18.50;99.90;;;;;;5021102;28;20576;-58
2022/09/10 11:32:05;;;;;;;22.33;19.08;;;18.50;99.90;;;;;;5021576;28;20038;-60
2022/09/10 11:34:53;;;;;;;24.70;21.40;;;18.50;99.90;;;;;;5019862;28;20060;-59
2022/09/10 11:37:39;;;;;;;26.05;19.95;;;18.60;99.90;;;;;;5023196;28;20044;-58
2022/09/10 11:40:15;;;;;;;25.98;20.23;;;18.60;99.90;;;;;;5022869;28;20527;-59
2022/09/10 11:42:47;;;;;;;30.30;20.95;;;18.60;99.90;;;;;;5020480;28;20029;-60
2022/09/10 11:45:35;;;;;;;27.52;21.65;;;18.70;99.90;;;;;;5003375;28;20029;-59
2022/09/10 11:48:13;;;;;;;24.05;19.95;;;18.80;99.90;;;;;;5022017;28;20139;-59
2022/09/10 11:50:55;;;;;;;22.95;18.80;;;18.70;99.90;;;;;;5024712;28;20057;-59
2022/09/10 11:53:23;;;;;;;29.45;21.00;;;18.70;99.90;;;;;;5013261;28;20551;-59
2022/09/10 11:56:04;;;;;;;25.58;19.73;;;18.80;99.90;;;;;;5021250;28;20739;-59
2022/09/10 11:58:37;;;;;;;25.55;19.33;;;18.80;99.90;;;;;;5016888;28;20063;-59
2022/09/10 12:01:27;;;;;;;25.42;19.65;;;18.70;99.90;;;;;;5020803;28;20100;-59
2022/09/10 12:04:13;;;;;;;22.58;17.90;;;18.70;99.90;;;;;;5020271;28;20072;-59
2022/09/10 12:07:06;;;;;;;19.60;17.38;;;18.70;99.90;;;;;;5018496;28;20373;-59
2022/09/10 12:09:53;;;;;;;21.58;18.05;;;18.70;99.90;;;;;;5023230;28;20100;-59
2022/09/10 12:12:32;;;;;;;22.95;17.10;;;18.60;99.90;;;;;;5018976;28;20056;-59
2022/09/10 12:14:58;;;;;;;20.92;17.50;;;18.60;99.90;;;;;;5027196;28;20037;-59
2022/09/10 12:17:35;;;;;;;20.95;17.60;;;18.70;99.90;;;;;;5007642;28;20171;-59
2022/09/10 12:20:04;;;;;;;22.95;18.80;;;18.70;99.90;;;;;;5019122;28;20029;-59
2022/09/10 12:22:35;;;;;;;23.55;18.50;;;18.60;99.90;;;;;;5017299;28;20067;-60
2022/09/10 12:25:05;;;;;;;25.63;17.52;;;18.70;99.90;;;;;;5025418;28;20025;-59
2022/09/10 12:27:43;;;;;;;20.10;16.27;;;18.70;99.90;;;;;;5017121;28;20144;-60
2022/09/10 12:30:24;;;;;;;24.65;17.77;;;18.80;99.90;;;;;;5022695;28;20044;-59
2022/09/10 12:32:53;;;;;;;22.92;17.30;;;18.80;99.90;;;;;;5019082;28;20185;-59
2022/09/10 12:35:31;;;;;;;23.55;16.25;;;19.00;99.90;;;;;;5017182;28;20048;-59
2022/09/10 12:38:34;;;;;;;23.45;16.88;;;19.00;99.90;;;;;;5024955;28;20025;-59
2022/09/10 12:41:03;;;;;;;20.48;15.65;;;19.10;99.90;;;;;;5012725;28;20044;-60
2022/09/10 12:43:42;;;;;;;23.23;16.90;;;19.30;99.90;;;;;;5016486;28;20070;-59
2022/09/10 12:46:07;;;;;;;19.35;16.35;;;19.30;99.90;;;;;;5013952;28;20931;-59
2022/09/10 12:48:36;;;;;;;19.23;16.05;;;19.20;99.90;;;;;;5018539;28;20037;-60
2022/09/10 12:51:36;;;;;;;20.33;17.40;;;19.20;99.90;;;;;;5029362;28;20399;-59
2022/09/10 12:54:32;;;;;;;21.60;17.58;;;19.20;99.90;;;;;;5017864;28;20492;-60
2022/09/10 12:57:11;;;;;;;20.60;17.15;;;19.20;99.90;;;;;;5017527;28;20458;-60
2022/09/10 13:00:16;;;;;;;22.70;18.23;;;19.20;99.90;;;;;;5017326;28;20548;-59
2022/09/10 13:02:47;;;;;;;20.67;18.27;;;19.20;99.90;;;;;;5018173;28;20140;-59